createdAt,value
2018-12-15T00:00:14.790Z,101062.72
2018-12-15T00:02:44.949Z,101056.63
2018-12-15T00:05:14.474Z,101063.94
2018-12-15T00:07:43.970Z,101064.91
2018-12-15T00:10:13.502Z,101064.78
2018-12-15T00:12:42.994Z,101064.51
2018-12-15T00:15:12.499Z,101064.44
2018-12-15T00:17:42.077Z,101064.51
2018-12-15T00:20:11.587Z,101070.61
2018-12-15T00:22:41.073Z,101067.41
2018-12-15T00:25:10.626Z,101071.55
2018-12-15T00:27:40.116Z,101076.88
2018-12-15T00:30:09.630Z,101068.81
2018-12-15T00:32:39.182Z,101075.18
2018-12-15T00:35:08.694Z,101073.53
2018-12-15T00:37:38.194Z,101070.56
2018-12-15T00:40:07.870Z,101070.50
2018-12-15T00:42:37.358Z,101069.59
2018-12-15T00:45:07.086Z,101069.19
2018-12-15T00:47:36.593Z,101067.98
2018-12-15T00:50:06.370Z,101075.46
2018-12-15T00:52:35.918Z,101070.50
2018-12-15T00:55:05.499Z,101064.97
2018-12-15T00:57:34.977Z,101068.52
2018-12-15T01:00:05.005Z,101076.47
2018-12-15T01:02:34.515Z,101070.23
2018-12-15T01:05:04.329Z,101071.11
2018-12-15T01:07:35.243Z,101076.23
2018-12-15T01:10:05.241Z,101075.89
2018-12-15T01:12:34.734Z,101076.88
2018-12-15T01:15:04.538Z,101084.19
2018-12-15T01:17:34.078Z,101079.91
2018-12-15T01:20:03.741Z,101078.66
2018-12-15T01:22:33.260Z,101084.36
2018-12-15T01:25:02.888Z,101085.56
2018-12-15T01:27:32.418Z,101087.45
2018-12-15T01:30:01.939Z,101088.77
2018-12-15T01:32:31.463Z,101091.40
2018-12-15T01:35:01.279Z,101086.85
2018-12-15T01:37:30.832Z,101087.97
2018-12-15T01:40:00.370Z,101095.85
2018-12-15T01:42:29.858Z,101100.06
2018-12-15T01:44:59.350Z,101099.22
2018-12-15T01:47:29.771Z,101095.21
2018-12-15T01:49:59.281Z,101097.91
2018-12-15T01:52:28.794Z,101097.40
2018-12-15T01:54:58.342Z,101093.05
2018-12-15T01:57:27.826Z,101088.70
2018-12-15T01:59:57.339Z,101094.81
2018-12-15T02:02:27.138Z,101095.48
2018-12-15T02:04:56.620Z,101104.34
2018-12-15T02:07:26.162Z,101107.58
2018-12-15T02:09:55.711Z,101117.36
2018-12-15T02:12:25.254Z,101117.29
2018-12-15T02:14:54.870Z,101112.88
2018-12-15T02:17:24.426Z,101111.69
2018-12-15T02:19:54.475Z,101114.12
2018-12-15T02:22:24.705Z,101113.08
2018-12-15T02:24:54.194Z,101110.05
2018-12-15T02:27:23.690Z,101112.27
2018-12-15T02:29:53.265Z,101119.78
2018-12-15T02:32:22.859Z,101114.52
2018-12-15T02:34:52.368Z,101119.08
2018-12-15T02:37:22.173Z,101125.17
2018-12-15T02:39:51.673Z,101119.17
2018-12-15T02:42:21.184Z,101116.88
2018-12-15T02:44:50.758Z,101124.50
2018-12-15T02:47:20.261Z,101126.36
2018-12-15T02:49:49.770Z,101113.98
2018-12-15T02:52:19.322Z,101109.97
2018-12-15T02:54:48.861Z,101109.41
2018-12-15T02:57:18.779Z,101107.69
2018-12-15T02:59:48.338Z,101101.65
2018-12-15T03:02:17.845Z,101104.92
2018-12-15T03:04:47.353Z,101103.23
2018-12-15T03:07:16.935Z,101108.09
2018-12-15T03:09:46.478Z,101103.47
2018-12-15T03:12:15.986Z,101104.34
2018-12-15T03:14:45.646Z,101109.94
2018-12-15T03:17:15.180Z,101111.36
2018-12-15T03:19:44.699Z,101106.50
2018-12-15T03:22:14.242Z,101110.05
2018-12-15T03:24:43.755Z,101105.19
2018-12-15T03:27:13.271Z,101110.92
2018-12-15T03:29:42.834Z,101105.19
2018-12-15T03:32:12.347Z,101105.52
2018-12-15T03:34:41.865Z,101107.01
2018-12-15T03:37:11.436Z,101102.49
2018-12-15T03:39:40.950Z,101102.89
2018-12-15T03:42:10.478Z,101101.45
2018-12-15T03:44:40.058Z,101106.77
2018-12-15T03:47:09.566Z,101106.97
2018-12-15T03:49:39.092Z,101110.98
2018-12-15T03:52:08.655Z,101112.44
2018-12-15T03:54:38.153Z,101111.86
2018-12-15T03:57:07.672Z,101117.63
2018-12-15T03:59:37.366Z,101115.84
2018-12-15T04:02:07.437Z,101116.45
2018-12-15T04:04:37.429Z,101117.48
2018-12-15T04:07:06.958Z,101111.93
2018-12-15T04:09:36.517Z,101109.27
2018-12-15T04:12:06.488Z,101117.19
2018-12-15T04:14:36.021Z,101119.64
2018-12-15T04:17:05.537Z,101119.31
2018-12-15T04:19:35.374Z,101121.53
2018-12-15T04:22:21.284Z,101125.37
2018-12-15T04:24:50.923Z,101123.72
2018-12-15T04:27:20.436Z,101126.18
2018-12-15T04:29:49.943Z,101122.30
2018-12-15T04:32:19.479Z,101126.52
2018-12-15T04:34:49.042Z,101127.27
2018-12-15T04:37:18.546Z,101128.84
2018-12-15T04:39:48.094Z,101124.63
2018-12-15T04:42:17.609Z,101133.90
2018-12-15T04:44:47.107Z,101133.53
2018-12-15T04:47:17.002Z,101137.98
2018-12-15T04:49:46.504Z,101132.29
2018-12-15T04:52:16.089Z,101137.08
2018-12-15T04:54:45.574Z,101138.89
2018-12-15T04:57:15.074Z,101140.48
2018-12-15T04:59:44.618Z,101134.92
2018-12-15T05:02:14.130Z,101139.77
2018-12-15T05:04:43.624Z,101138.73
2018-12-15T05:07:13.169Z,101132.42
2018-12-15T05:09:42.716Z,101131.24
2018-12-15T05:12:12.532Z,101134.17
2018-12-15T05:14:42.319Z,101133.06
2018-12-15T05:17:11.969Z,101134.61
2018-12-15T05:19:41.485Z,101135.92
2018-12-15T05:22:11.083Z,101133.70
2018-12-15T05:24:40.598Z,101137.81
2018-12-15T05:27:11.392Z,101130.63
2018-12-15T05:29:41.137Z,101132.29
2018-12-15T05:32:10.650Z,101136.67
2018-12-15T05:34:40.206Z,101126.16
2018-12-15T05:37:09.696Z,101135.36
2018-12-15T05:39:39.223Z,101137.81
2018-12-15T05:42:08.767Z,101143.52
2018-12-15T05:44:38.258Z,101139.47
2018-12-15T05:47:07.763Z,101134.48
2018-12-15T05:49:37.322Z,101134.01
2018-12-15T05:52:06.843Z,101139.23
2018-12-15T05:54:36.346Z,101136.88
2018-12-15T05:57:05.886Z,101132.16
2018-12-15T05:59:35.386Z,101134.04
2018-12-15T06:02:07.582Z,101135.19
2018-12-15T06:04:37.093Z,101135.22
2018-12-15T06:07:06.642Z,101134.95
2018-12-15T06:09:36.202Z,101137.55
2018-12-15T06:12:05.745Z,101137.55
2018-12-15T06:14:35.333Z,101138.19
2018-12-15T06:17:04.910Z,101137.03
2018-12-15T06:19:34.418Z,101138.11
2018-12-15T06:22:03.963Z,101138.28
2018-12-15T06:24:33.507Z,101137.64
2018-12-15T06:27:03.054Z,101143.94
2018-12-15T06:29:32.643Z,101145.48
2018-12-15T06:32:03.042Z,101141.88
2018-12-15T06:34:32.577Z,101141.72
2018-12-15T06:37:02.894Z,101133.94
2018-12-15T06:39:32.482Z,101144.45
2018-12-15T06:42:01.974Z,101138.23
2018-12-15T06:44:31.490Z,101132.88
2018-12-15T06:47:01.041Z,101134.53
2018-12-15T06:49:30.931Z,101135.95
2018-12-15T06:52:00.450Z,101138.23
2018-12-15T06:54:30.094Z,101132.55
2018-12-15T06:56:59.579Z,101132.64
2018-12-15T06:59:29.082Z,101129.91
2018-12-15T07:01:58.622Z,101139.05
2018-12-15T07:04:28.130Z,101138.94
2018-12-15T07:06:57.637Z,101134.02
2018-12-15T07:09:27.193Z,101131.05
2018-12-15T07:11:56.730Z,101134.15
2018-12-15T07:14:26.217Z,101136.84
2018-12-15T07:16:56.135Z,101135.31
2018-12-15T07:19:25.618Z,101141.75
2018-12-15T07:21:55.393Z,101155.64
2018-12-15T07:24:24.943Z,101148.73
2018-12-15T07:26:54.479Z,101148.05
2018-12-15T07:29:23.972Z,101147.28
2018-12-15T07:31:53.509Z,101149.58
2018-12-15T07:34:22.995Z,101144.31
2018-12-15T07:36:52.490Z,101146.20
2018-12-15T07:39:22.193Z,101150.08
2018-12-15T07:41:51.670Z,101146.61
2018-12-15T07:44:21.166Z,101145.06
2018-12-15T07:46:50.738Z,101148.55
2018-12-15T07:49:20.234Z,101150.61
2018-12-15T07:51:49.729Z,101144.81
2018-12-15T07:54:19.437Z,101155.30
2018-12-15T07:56:48.966Z,101148.73
2018-12-15T07:59:18.467Z,101158.20
2018-12-15T08:01:48.043Z,101151.39
2018-12-15T08:04:17.546Z,101144.95
2018-12-15T08:06:47.190Z,101145.77
2018-12-15T08:09:16.737Z,101140.38
2018-12-15T08:11:51.466Z,101136.50
2018-12-15T08:14:21.049Z,101150.95
2018-12-15T08:16:50.597Z,101154.95
2018-12-15T08:19:20.082Z,101154.08
2018-12-15T08:21:49.634Z,101147.52
2018-12-15T08:24:19.730Z,101151.36
2018-12-15T08:26:49.289Z,101154.89
2018-12-15T08:29:18.794Z,101149.91
2018-12-15T08:31:48.289Z,101158.30
2018-12-15T08:34:17.853Z,101159.68
2018-12-15T08:36:47.361Z,101164.88
2018-12-15T08:39:17.382Z,101163.69
2018-12-15T08:41:46.890Z,101158.20
2018-12-15T08:44:16.706Z,101161.87
2018-12-15T08:46:48.016Z,101161.80
2018-12-15T08:49:17.510Z,101168.81
2018-12-15T08:51:47.014Z,101175.01
2018-12-15T08:54:16.548Z,101169.63
2018-12-15T08:56:46.134Z,101166.43
2018-12-15T08:59:15.633Z,101164.03
2018-12-15T09:01:45.201Z,101169.63
2018-12-15T09:04:14.743Z,101167.91
2018-12-15T09:06:44.238Z,101175.79
2018-12-15T09:09:13.862Z,101176.41
2018-12-15T09:11:43.418Z,101175.44
2018-12-15T09:14:12.958Z,101169.13
2018-12-15T09:16:42.811Z,101164.48
2018-12-15T09:19:12.361Z,101167.27
2018-12-15T09:21:41.853Z,101167.41
2018-12-15T09:24:11.405Z,101168.59
2018-12-15T09:26:40.939Z,101162.99
2018-12-15T09:29:10.445Z,101157.58
2018-12-15T09:31:40.250Z,101156.20
2018-12-15T09:34:09.743Z,101157.67
2018-12-15T09:36:39.250Z,101168.93
2018-12-15T09:39:08.825Z,101169.41
2018-12-15T09:41:38.314Z,101168.59
2018-12-15T09:44:07.802Z,101158.02
2018-12-15T09:46:37.350Z,101164.84
2018-12-15T09:49:06.861Z,101158.83
2018-12-15T09:51:36.379Z,101157.95
2018-12-15T09:54:05.945Z,101160.28
2018-12-15T09:56:35.566Z,101157.92
2018-12-15T09:59:05.143Z,101166.50
2018-12-15T10:01:34.642Z,101160.88
2018-12-15T10:04:04.274Z,101154.59
2018-12-15T10:06:33.974Z,101153.44
2018-12-15T10:09:03.559Z,101158.70
2018-12-15T10:11:33.083Z,101157.78
2018-12-15T10:14:03.872Z,101160.69
2018-12-15T10:16:33.466Z,101160.62
2018-12-15T10:19:03.088Z,101159.78
2018-12-15T10:21:32.616Z,101148.70
2018-12-15T10:24:02.186Z,101146.57
2018-12-15T10:26:31.712Z,101145.66
2018-12-15T10:29:01.209Z,101138.69
2018-12-15T10:31:35.894Z,101130.33
2018-12-15T10:34:05.383Z,101131.64
2018-12-15T10:36:35.738Z,101128.17
2018-12-15T10:39:08.482Z,101125.55
2018-12-15T10:41:38.061Z,101125.20
2018-12-15T10:44:07.602Z,101121.66
2018-12-15T10:46:37.130Z,101119.48
2018-12-15T10:49:06.705Z,101122.51
2018-12-15T10:51:36.213Z,101118.16
2018-12-15T10:54:06.270Z,101112.13
2018-12-15T10:56:35.775Z,101109.84
2018-12-15T10:59:05.270Z,101104.78
2018-12-15T11:01:34.857Z,101107.34
2018-12-15T11:04:04.396Z,101106.64
2018-12-15T11:06:33.910Z,101106.56
2018-12-15T11:09:04.499Z,101101.65
2018-12-15T11:11:34.010Z,101104.14
2018-12-15T11:14:03.695Z,101095.41
2018-12-15T11:16:33.279Z,101101.37
2018-12-15T11:19:02.805Z,101101.92
2018-12-15T11:21:32.302Z,101098.48
2018-12-15T11:24:02.435Z,101087.59
2018-12-15T11:26:31.950Z,101088.57
2018-12-15T11:29:01.585Z,101081.02
2018-12-15T11:31:31.125Z,101085.47
2018-12-15T11:34:00.656Z,101083.41
2018-12-15T11:36:30.165Z,101078.30
2018-12-15T11:38:59.713Z,101079.27
2018-12-15T11:41:29.206Z,101084.66
2018-12-15T11:43:58.737Z,101073.67
2018-12-15T11:46:28.301Z,101082.30
2018-12-15T11:48:57.798Z,101074.66
2018-12-15T11:51:27.306Z,101070.14
2018-12-15T11:53:56.890Z,101063.36
2018-12-15T11:56:26.425Z,101066.70
2018-12-15T11:58:56.096Z,101065.55
2018-12-15T12:01:25.645Z,101064.84
2018-12-15T12:03:55.158Z,101066.87
2018-12-15T12:06:24.782Z,101064.61
2018-12-15T12:08:54.308Z,101063.13
2018-12-15T12:11:23.818Z,101062.72
2018-12-15T12:13:53.378Z,101061.81
2018-12-15T12:16:22.918Z,101057.87
2018-12-15T12:18:52.434Z,101058.78
2018-12-15T12:21:22.015Z,101050.89
2018-12-15T12:23:52.037Z,101047.83
2018-12-15T12:26:21.597Z,101046.87
2018-12-15T12:28:51.125Z,101043.92
2018-12-15T12:31:21.251Z,101039.13
2018-12-15T12:33:50.811Z,101042.23
2018-12-15T12:36:20.310Z,101037.94
2018-12-15T12:38:49.837Z,101043.17
2018-12-15T12:41:19.339Z,101043.48
2018-12-15T12:43:48.849Z,101031.58
2018-12-15T12:46:18.327Z,101044.59
2018-12-15T12:48:47.862Z,101034.06
2018-12-15T12:51:17.410Z,101040.37
2018-12-15T12:53:47.069Z,101039.20
2018-12-15T12:56:16.575Z,101032.48
2018-12-15T12:58:46.121Z,101031.82
2018-12-15T13:01:15.691Z,101028.59
2018-12-15T13:03:45.222Z,101027.77
2018-12-15T13:06:14.751Z,101028.75
2018-12-15T13:08:44.278Z,101024.58
2018-12-15T13:11:15.201Z,101024.34
2018-12-15T13:13:44.731Z,101020.16
2018-12-15T13:16:14.257Z,101020.33
2018-12-15T13:18:43.858Z,101022.05
2018-12-15T13:21:13.377Z,101023.42
2018-12-15T13:23:43.289Z,101027.81
2018-12-15T13:26:12.806Z,101029.45
2018-12-15T13:28:42.388Z,101034.38
2018-12-15T13:31:11.954Z,101031.41
2018-12-15T13:33:41.463Z,101027.88
2018-12-15T13:36:15.183Z,101026.17
2018-12-15T13:38:44.710Z,101032.80
2018-12-15T13:41:14.330Z,101022.62
2018-12-15T13:43:43.869Z,101017.92
2018-12-15T13:46:13.641Z,101016.72
2018-12-15T13:48:43.142Z,101012.00
2018-12-15T13:51:12.673Z,101012.11
2018-12-15T13:53:42.225Z,101010.72
2018-12-15T13:56:11.714Z,101009.70
2018-12-15T13:58:41.232Z,101013.11
2018-12-15T14:01:10.738Z,101009.41
2018-12-15T14:03:40.394Z,101002.26
2018-12-15T14:06:09.874Z,100992.94
2018-12-15T14:08:39.394Z,101001.59
2018-12-15T14:11:08.924Z,101004.22
2018-12-15T14:13:38.450Z,100997.41
2018-12-15T14:16:07.938Z,100992.80
2018-12-15T14:18:37.494Z,100987.03
2018-12-15T14:21:06.996Z,100990.30
2018-12-15T14:23:36.523Z,100984.72
2018-12-15T14:26:06.019Z,100986.22
2018-12-15T14:28:35.566Z,100979.31
2018-12-15T14:31:05.073Z,100981.30
2018-12-15T14:33:34.622Z,100977.09
2018-12-15T14:36:04.146Z,100978.86
2018-12-15T14:38:33.650Z,100974.38
2018-12-15T14:41:03.131Z,100976.90
2018-12-15T14:43:32.654Z,100977.09
2018-12-15T14:46:02.149Z,100969.52
2018-12-15T14:48:31.679Z,100967.14
2018-12-15T14:51:01.162Z,100970.70
2018-12-15T14:53:30.747Z,100974.25
2018-12-15T14:56:00.303Z,100970.17
2018-12-15T14:58:29.810Z,100967.41
2018-12-15T15:00:59.965Z,100966.81
2018-12-15T15:03:29.654Z,100961.75
2018-12-15T15:05:59.158Z,100959.57
2018-12-15T15:08:28.679Z,100964.55
2018-12-15T15:10:58.183Z,100959.20
2018-12-15T15:13:34.210Z,100958.88
2018-12-15T15:15:59.271Z,100952.83
2018-12-15T15:18:28.782Z,100950.27
2018-12-15T15:20:58.270Z,100944.80
2018-12-15T15:23:27.826Z,100943.96
2018-12-15T15:25:57.342Z,100939.95
2018-12-15T15:28:26.870Z,100940.35
2018-12-15T15:30:56.562Z,100940.35
2018-12-15T15:33:26.140Z,100937.18
2018-12-15T15:35:55.633Z,100940.21
2018-12-15T15:38:25.182Z,100922.95
2018-12-15T15:40:54.698Z,100929.44
2018-12-15T15:43:24.225Z,100923.05
2018-12-15T15:45:53.729Z,100914.07
2018-12-15T15:48:23.454Z,100918.20
2018-12-15T15:50:52.996Z,100917.36
2018-12-15T15:53:22.534Z,100916.05
2018-12-15T15:55:52.338Z,100913.82
2018-12-15T15:58:22.009Z,100909.19
2018-12-15T16:00:51.506Z,100908.23
2018-12-15T16:03:21.058Z,100904.41
2018-12-15T16:05:50.550Z,100899.99
2018-12-15T16:08:20.050Z,100892.18
2018-12-15T16:10:49.581Z,100884.11
2018-12-15T16:13:19.126Z,100881.59
2018-12-15T16:18:47.547Z,100870.16
2018-12-15T16:21:17.165Z,100864.66
2018-12-15T16:23:46.650Z,100858.41
2018-12-15T16:26:16.193Z,100853.16
2018-12-15T16:28:45.693Z,100851.98
2018-12-15T16:31:15.206Z,100856.25
2018-12-15T16:33:44.826Z,100849.69
2018-12-15T16:36:14.343Z,100856.52
2018-12-15T16:38:43.995Z,100855.38
2018-12-15T16:41:13.550Z,100841.95
2018-12-15T16:43:43.050Z,100837.39
2018-12-15T16:46:12.561Z,100833.84
2018-12-15T16:48:42.105Z,100826.51
2018-12-15T16:51:11.634Z,100829.47
2018-12-15T16:53:41.173Z,100829.72
2018-12-15T16:56:10.904Z,100827.34
2018-12-15T16:58:40.395Z,100825.38
2018-12-15T17:01:10.077Z,100827.02
2018-12-15T17:03:39.562Z,100816.98
2018-12-15T17:06:09.070Z,100825.45
2018-12-15T17:08:38.651Z,100818.16
2018-12-15T17:11:08.213Z,100816.77
2018-12-15T17:13:37.726Z,100811.98
2018-12-15T17:16:07.269Z,100809.83
2018-12-15T17:18:36.750Z,100818.48
2018-12-15T17:21:06.249Z,100811.47
2018-12-15T17:23:35.783Z,100811.66
2018-12-15T17:26:05.603Z,100812.72
2018-12-15T17:28:35.158Z,100811.98
2018-12-15T17:31:04.690Z,100812.05
2018-12-15T17:33:34.202Z,100811.91
2018-12-15T17:36:03.894Z,100803.95
2018-12-15T17:38:33.397Z,100795.05
2018-12-15T17:41:02.883Z,100787.83
2018-12-15T17:43:32.405Z,100785.06
2018-12-15T17:46:02.045Z,100785.64
2018-12-15T17:48:31.549Z,100781.62
2018-12-15T17:51:03.416Z,100788.16
2018-12-15T17:53:32.842Z,100773.49
2018-12-15T17:56:02.390Z,100776.01
2018-12-15T17:58:32.334Z,100773.05
2018-12-15T18:01:01.845Z,100764.05
2018-12-15T18:03:31.385Z,100776.37
2018-12-15T18:06:00.890Z,100765.86
2018-12-15T18:08:30.365Z,100766.48
2018-12-15T18:10:59.913Z,100759.34
2018-12-15T18:13:29.449Z,100755.77
2018-12-15T18:15:58.950Z,100755.77
2018-12-15T18:18:28.633Z,100753.14
2018-12-15T18:20:59.350Z,100751.89
2018-12-15T18:23:28.859Z,100747.88
2018-12-15T18:25:58.910Z,100742.30
2018-12-15T18:28:28.527Z,100734.34
2018-12-15T18:30:58.529Z,100730.81
2018-12-15T18:33:28.086Z,100729.97
2018-12-15T18:35:57.675Z,100729.89
2018-12-15T18:38:27.266Z,100722.52
2018-12-15T18:40:56.914Z,100725.87
2018-12-15T18:43:26.451Z,100718.31
2018-12-15T18:45:55.989Z,100713.39
2018-12-15T18:48:25.591Z,100719.84
2018-12-15T18:50:55.124Z,100706.70
2018-12-15T18:53:24.692Z,100699.84
2018-12-15T18:55:54.278Z,100694.51
2018-12-15T18:58:23.868Z,100690.30
2018-12-15T19:00:53.410Z,100689.21
2018-12-15T19:03:23.269Z,100683.23
2018-12-15T19:05:52.950Z,100681.01
2018-12-15T19:08:22.505Z,100675.88
2018-12-15T19:10:52.069Z,100676.00
2018-12-15T19:13:21.626Z,100680.45
2018-12-15T19:15:51.186Z,100680.93
2018-12-15T19:18:21.619Z,100676.20
2018-12-15T19:20:51.144Z,100674.19
2018-12-15T19:23:20.629Z,100671.24
2018-12-15T19:25:50.223Z,100674.78
2018-12-15T19:28:20.007Z,100668.86
2018-12-15T19:30:49.570Z,100665.70
2018-12-15T19:33:19.189Z,100667.67
2018-12-15T19:35:48.823Z,100665.77
2018-12-15T19:38:18.466Z,100662.81
2018-12-15T19:40:48.086Z,100650.23
2018-12-15T19:43:17.634Z,100651.66
2018-12-15T19:45:48.789Z,100647.28
2018-12-15T19:48:18.458Z,100643.70
2018-12-15T19:50:48.043Z,100648.52
2018-12-15T19:53:17.612Z,100642.78
2018-12-15T19:55:47.205Z,100643.66
2018-12-15T19:58:16.775Z,100629.48
2018-12-15T20:00:46.338Z,100628.41
2018-12-15T20:03:16.119Z,100620.61
2018-12-15T20:05:45.708Z,100615.23
2018-12-15T20:08:15.264Z,100594.54
2018-12-15T20:10:44.885Z,100589.91
2018-12-15T20:13:14.427Z,100587.21
2018-12-15T20:15:44.078Z,100586.98
2018-12-15T20:18:13.651Z,100577.14
2018-12-15T20:20:43.239Z,100572.37
2018-12-15T20:23:12.843Z,100569.02
2018-12-15T20:25:43.063Z,100559.19
2018-12-15T20:28:12.654Z,100553.34
2018-12-15T20:30:42.229Z,100546.30
2018-12-15T20:33:11.791Z,100546.38
2018-12-15T20:35:41.518Z,100548.69
2018-12-15T20:38:11.062Z,100538.70
2018-12-15T20:40:40.634Z,100535.59
2018-12-15T20:43:10.252Z,100532.56
2018-12-15T20:45:39.945Z,100526.59
2018-12-15T20:48:09.478Z,100514.62
2018-12-15T20:50:39.071Z,100519.43
2018-12-15T20:53:08.577Z,100520.91
2018-12-15T20:55:38.049Z,100512.99
2018-12-15T20:58:07.616Z,100512.23
2018-12-15T21:00:37.155Z,100511.20
2018-12-15T21:03:06.657Z,100515.34
2018-12-15T21:05:36.885Z,100518.59
2018-12-15T21:08:06.655Z,100514.10
2018-12-15T21:10:36.230Z,100509.28
2018-12-15T21:13:05.767Z,100501.33
2018-12-15T21:15:39.338Z,100504.19
2018-12-15T21:18:10.079Z,100512.45
2018-12-15T21:20:39.699Z,100503.27
2018-12-15T21:23:09.294Z,100503.19
2018-12-15T21:25:38.870Z,100498.22
2018-12-15T21:28:08.456Z,100489.90
2018-12-15T21:30:38.026Z,100491.41
2018-12-15T21:33:07.663Z,100484.53
2018-12-15T21:35:37.386Z,100482.73
2018-12-15T21:38:06.936Z,100486.59
2018-12-15T21:40:36.490Z,100485.30
2018-12-15T21:43:06.130Z,100483.55
2018-12-15T21:45:35.739Z,100476.28
2018-12-15T21:48:05.322Z,100471.66
2018-12-15T21:50:34.930Z,100470.03
2018-12-15T21:53:04.522Z,100465.50
2018-12-15T21:55:34.133Z,100463.23
2018-12-15T21:58:03.687Z,100461.91
2018-12-15T22:00:33.537Z,100464.30
2018-12-15T22:03:03.273Z,100460.08
2018-12-15T22:05:32.834Z,100457.19
2018-12-15T22:08:02.378Z,100454.31
2018-12-15T22:10:32.471Z,100449.41
2018-12-15T22:13:02.042Z,100440.83
2018-12-15T22:15:31.624Z,100439.64
2018-12-15T22:18:01.254Z,100435.80
2018-12-15T22:20:30.999Z,100425.23
2018-12-15T22:23:00.558Z,100421.82
2018-12-15T22:25:30.131Z,100414.92
2018-12-15T22:27:59.674Z,100402.87
2018-12-15T22:30:29.219Z,100399.03
2018-12-15T22:32:58.790Z,100389.06
2018-12-15T22:35:28.371Z,100378.66
2018-12-15T22:37:57.928Z,100376.43
2018-12-15T22:40:27.492Z,100371.53
2018-12-15T22:42:57.038Z,100364.98
2018-12-15T22:45:26.599Z,100358.44
2018-12-15T22:47:56.155Z,100348.18
2018-12-15T22:50:25.723Z,100338.14
2018-12-15T22:52:55.295Z,100335.59
2018-12-15T22:55:24.825Z,100334.09
2018-12-15T22:57:54.378Z,100334.88
2018-12-15T23:00:24.067Z,100329.95
2018-12-15T23:02:53.736Z,100329.05
2018-12-15T23:05:23.578Z,100325.09
2018-12-15T23:07:53.143Z,100321.75
2018-12-15T23:10:22.822Z,100317.58
2018-12-15T23:12:52.400Z,100311.74
2018-12-15T23:15:22.358Z,100304.87
2018-12-15T23:17:51.942Z,100308.08
2018-12-15T23:20:21.506Z,100303.39
2018-12-15T23:22:51.084Z,100302.91
2018-12-15T23:25:20.651Z,100285.81
2018-12-15T23:27:50.230Z,100278.62
2018-12-15T23:30:19.802Z,100277.70
2018-12-15T23:32:49.331Z,100271.97
2018-12-15T23:35:18.919Z,100270.27
2018-12-15T23:37:48.479Z,100260.55
2018-12-15T23:40:18.004Z,100256.89
2018-12-15T23:42:47.581Z,100253.08
2018-12-15T23:45:17.125Z,100246.53
2018-12-15T23:47:46.711Z,100236.65
2018-12-15T23:50:16.274Z,100239.27
2018-12-15T23:52:45.806Z,100235.28
2018-12-15T23:55:15.398Z,100241.64
2018-12-15T23:57:44.951Z,100225.45
